sensor_id;sensor_type;location;lat;lon;timestamp;pressure;altitude;pressure_sealevel;temperature;humidity
17209;BME280;8720;48.488;9.202;2023-03-13T00:01:15;96556.03;;;15.06;44.10
17209;BME280;8720;48.488;9.202;2023-03-13T00:03:43;96543.94;;;15.02;44.12
17209;BME280;8720;48.488;9.202;2023-03-13T00:06:11;96551.75;;;15.03;44.25
17209;BME280;8720;48.488;9.202;2023-03-13T00:08:39;96554.78;;;15.13;44.17
17209;BME280;8720;48.488;9.202;2023-03-13T00:11:09;96545.81;;;15.17;43.86
17209;BME280;8720;48.488;9.202;2023-03-13T00:13:37;96538.69;;;15.19;43.93
17209;BME280;8720;48.488;9.202;2023-03-13T00:16:07;96539.38;;;15.22;44.05
17209;BME280;8720;48.488;9.202;2023-03-13T00:18:37;96540.06;;;15.26;43.87
17209;BME280;8720;48.488;9.202;2023-03-13T00:21:07;96539.22;;;15.25;43.94
17209;BME280;8720;48.488;9.202;2023-03-13T00:23:37;96540.84;;;15.28;43.97
17209;BME280;8720;48.488;9.202;2023-03-13T00:26:08;96529.75;;;15.21;43.70
17209;BME280;8720;48.488;9.202;2023-03-13T00:28:38;96538.91;;;15.31;43.89
17209;BME280;8720;48.488;9.202;2023-03-13T00:31:07;96538.78;;;15.34;43.81
17209;BME280;8720;48.488;9.202;2023-03-13T00:33:38;96543.97;;;15.36;43.79
17209;BME280;8720;48.488;9.202;2023-03-13T00:36:09;96536.97;;;15.35;43.76
17209;BME280;8720;48.488;9.202;2023-03-13T00:38:37;96536.84;;;15.38;43.73
17209;BME280;8720;48.488;9.202;2023-03-13T00:41:07;96548.16;;;15.40;43.50
17209;BME280;8720;48.488;9.202;2023-03-13T00:43:37;96547.22;;;15.41;43.73
17209;BME280;8720;48.488;9.202;2023-03-13T00:46:05;96541.06;;;15.42;43.72
17209;BME280;8720;48.488;9.202;2023-03-13T00:48:33;96546.25;;;15.43;43.63
17209;BME280;8720;48.488;9.202;2023-03-13T00:51:04;96540.97;;;15.43;43.77
17209;BME280;8720;48.488;9.202;2023-03-13T00:53:32;96532.16;;;15.44;43.58
17209;BME280;8720;48.488;9.202;2023-03-13T00:56:02;96536.31;;;15.48;43.59
17209;BME280;8720;48.488;9.202;2023-03-13T00:58:33;96526.94;;;15.43;43.82
17209;BME280;8720;48.488;9.202;2023-03-13T01:01:07;96532.59;;;15.53;43.59
17209;BME280;8720;48.488;9.202;2023-03-13T01:03:36;96534.44;;;15.51;43.39
17209;BME280;8720;48.488;9.202;2023-03-13T01:06:09;96529.91;;;15.54;43.50
17209;BME280;8720;48.488;9.202;2023-03-13T01:08:37;96523.84;;;15.52;43.37
17209;BME280;8720;48.488;9.202;2023-03-13T01:11:08;96516.75;;;15.53;43.26
17209;BME280;8720;48.488;9.202;2023-03-13T01:13:37;96516.75;;;15.53;43.36
17209;BME280;8720;48.488;9.202;2023-03-13T01:16:09;96515.84;;;15.54;43.52
17209;BME280;8720;48.488;9.202;2023-03-13T01:18:40;96509.72;;;15.53;43.70
17209;BME280;8720;48.488;9.202;2023-03-13T01:21:12;96507.06;;;15.53;43.61
17209;BME280;8720;48.488;9.202;2023-03-13T01:23:40;96492.97;;;15.54;43.49
17209;BME280;8720;48.488;9.202;2023-03-13T01:26:09;96500.72;;;15.57;43.56
17209;BME280;8720;48.488;9.202;2023-03-13T01:28:38;96487.53;;;15.57;43.56
17209;BME280;8720;48.488;9.202;2023-03-13T01:31:13;96490.00;;;15.60;43.69
17209;BME280;8720;48.488;9.202;2023-03-13T01:33:41;96484.66;;;15.62;43.82
17209;BME280;8720;48.488;9.202;2023-03-13T01:36:10;96487.22;;;15.63;43.90
17209;BME280;8720;48.488;9.202;2023-03-13T01:38:39;96488.00;;;15.65;43.77
17209;BME280;8720;48.488;9.202;2023-03-13T01:41:10;96479.13;;;15.66;43.79
17209;BME280;8720;48.488;9.202;2023-03-13T01:43:38;96473.84;;;15.66;44.00
17209;BME280;8720;48.488;9.202;2023-03-13T01:46:13;96471.22;;;15.66;44.14
17209;BME280;8720;48.488;9.202;2023-03-13T01:49:00;96465.81;;;15.69;44.08
17209;BME280;8720;48.488;9.202;2023-03-13T01:51:37;96453.38;;;15.71;44.21
17209;BME280;8720;48.488;9.202;2023-03-13T01:54:10;96448.44;;;15.65;44.39
17209;BME280;8720;48.488;9.202;2023-03-13T01:56:43;96448.72;;;15.76;44.17
17209;BME280;8720;48.488;9.202;2023-03-13T01:59:19;96448.03;;;15.73;44.53
17209;BME280;8720;48.488;9.202;2023-03-13T02:01:52;96451.78;;;15.84;44.11
17209;BME280;8720;48.488;9.202;2023-03-13T02:04:26;96437.59;;;15.87;44.42
17209;BME280;8720;48.488;9.202;2023-03-13T02:07:03;96425.94;;;15.91;44.47
17209;BME280;8720;48.488;9.202;2023-03-13T02:09:34;96426.69;;;15.93;44.18
17209;BME280;8720;48.488;9.202;2023-03-13T02:12:07;96423.03;;;15.95;44.47
17209;BME280;8720;48.488;9.202;2023-03-13T02:14:38;96421.16;;;15.97;44.23
17209;BME280;8720;48.488;9.202;2023-03-13T02:17:08;96410.47;;;16.00;44.41
17209;BME280;8720;48.488;9.202;2023-03-13T02:19:42;96412.06;;;16.03;44.47
17209;BME280;8720;48.488;9.202;2023-03-13T02:22:23;96413.69;;;16.05;44.64
17209;BME280;8720;48.488;9.202;2023-03-13T02:25:01;96403.81;;;16.09;44.50
17209;BME280;8720;48.488;9.202;2023-03-13T02:27:37;96407.13;;;16.12;44.68
17209;BME280;8720;48.488;9.202;2023-03-13T02:30:08;96409.53;;;16.17;44.77
17209;BME280;8720;48.488;9.202;2023-03-13T02:32:37;96405.69;;;16.22;44.82
17209;BME280;8720;48.488;9.202;2023-03-13T02:35:11;96408.16;;;16.25;44.77
17209;BME280;8720;48.488;9.202;2023-03-13T02:37:41;96412.25;;;16.31;44.77
17209;BME280;8720;48.488;9.202;2023-03-13T02:40:21;96397.09;;;16.34;44.85
17209;BME280;8720;48.488;9.202;2023-03-13T02:42:55;96386.34;;;16.37;44.66
17209;BME280;8720;48.488;9.202;2023-03-13T02:45:22;96386.19;;;16.41;44.91
17209;BME280;8720;48.488;9.202;2023-03-13T02:47:50;96384.22;;;16.44;44.80
17209;BME280;8720;48.488;9.202;2023-03-13T02:50:18;96361.47;;;16.42;45.00
17209;BME280;8720;48.488;9.202;2023-03-13T02:52:51;96358.66;;;16.45;44.78
17209;BME280;8720;48.488;9.202;2023-03-13T02:55:27;96364.38;;;16.53;45.19
17209;BME280;8720;48.488;9.202;2023-03-13T02:57:57;96346.59;;;16.56;44.65
17209;BME280;8720;48.488;9.202;2023-03-13T03:03:06;96345.38;;;16.62;44.68
17209;BME280;8720;48.488;9.202;2023-03-13T03:05:36;96333.69;;;16.66;44.68
17209;BME280;8720;48.488;9.202;2023-03-13T03:08:03;96336.91;;;16.71;44.71
17209;BME280;8720;48.488;9.202;2023-03-13T03:10:30;96329.63;;;16.74;44.62
17209;BME280;8720;48.488;9.202;2023-03-13T03:12:59;96323.34;;;16.77;44.86
17209;BME280;8720;48.488;9.202;2023-03-13T03:15:26;96318.72;;;16.80;44.51
17209;BME280;8720;48.488;9.202;2023-03-13T03:17:54;96312.41;;;16.83;44.52
17209;BME280;8720;48.488;9.202;2023-03-13T03:20:21;96314.84;;;16.86;44.34
17209;BME280;8720;48.488;9.202;2023-03-13T03:22:48;96312.81;;;16.91;44.34
17209;BME280;8720;48.488;9.202;2023-03-13T03:25:16;96303.81;;;16.93;44.28
17209;BME280;8720;48.488;9.202;2023-03-13T03:27:44;96299.38;;;16.94;44.17
17209;BME280;8720;48.488;9.202;2023-03-13T03:30:13;96289.31;;;17.00;44.11
17209;BME280;8720;48.488;9.202;2023-03-13T03:32:41;96286.47;;;17.03;44.17
17209;BME280;8720;48.488;9.202;2023-03-13T03:35:08;96281.00;;;17.06;44.09
17209;BME280;8720;48.488;9.202;2023-03-13T03:37:36;96272.22;;;17.06;44.31
17209;BME280;8720;48.488;9.202;2023-03-13T03:40:05;96283.25;;;17.12;44.06
17209;BME280;8720;48.488;9.202;2023-03-13T03:42:34;96289.22;;;17.16;44.21
17209;BME280;8720;48.488;9.202;2023-03-13T03:45:02;96281.19;;;17.17;44.21
17209;BME280;8720;48.488;9.202;2023-03-13T03:47:31;96299.50;;;17.20;44.11
17209;BME280;8720;48.488;9.202;2023-03-13T03:49:59;96300.25;;;17.22;44.29
17209;BME280;8720;48.488;9.202;2023-03-13T03:52:31;96304.63;;;17.23;44.07
17209;BME280;8720;48.488;9.202;2023-03-13T03:54:58;96307.16;;;17.25;44.17
17209;BME280;8720;48.488;9.202;2023-03-13T03:57:25;96312.25;;;17.28;44.40
17209;BME280;8720;48.488;9.202;2023-03-13T03:59:53;96311.31;;;17.29;44.58
17209;BME280;8720;48.488;9.202;2023-03-13T04:02:21;96309.44;;;17.31;44.46
17209;BME280;8720;48.488;9.202;2023-03-13T04:04:50;96312.81;;;17.33;44.29
17209;BME280;8720;48.488;9.202;2023-03-13T04:07:26;96306.56;;;17.34;44.34
17209;BME280;8720;48.488;9.202;2023-03-13T04:09:53;96304.59;;;17.38;44.43
17209;BME280;8720;48.488;9.202;2023-03-13T04:12:34;96302.91;;;17.37;44.39
17209;BME280;8720;48.488;9.202;2023-03-13T04:15:02;96305.66;;;17.35;44.48
17209;BME280;8720;48.488;9.202;2023-03-13T04:17:29;96302.81;;;17.38;44.55
17209;BME280;8720;48.488;9.202;2023-03-13T04:19:59;96296.59;;;17.39;44.53
17209;BME280;8720;48.488;9.202;2023-03-13T04:22:28;96297.41;;;17.40;44.37
17209;BME280;8720;48.488;9.202;2023-03-13T04:24:58;96302.69;;;17.40;44.41
17209;BME280;8720;48.488;9.202;2023-03-13T04:27:28;96301.56;;;17.44;44.50
17209;BME280;8720;48.488;9.202;2023-03-13T04:29:55;96291.75;;;17.46;44.33
17209;BME280;8720;48.488;9.202;2023-03-13T04:32:26;96280.72;;;17.39;44.48
17209;BME280;8720;48.488;9.202;2023-03-13T04:35:04;96282.22;;;17.43;44.44
17209;BME280;8720;48.488;9.202;2023-03-13T04:37:40;96296.94;;;17.47;44.27
17209;BME280;8720;48.488;9.202;2023-03-13T04:40:28;96278.41;;;17.47;44.36
17209;BME280;8720;48.488;9.202;2023-03-13T04:43:18;96288.97;;;17.49;44.22
17209;BME280;8720;48.488;9.202;2023-03-13T04:45:52;96287.13;;;17.49;44.04
17209;BME280;8720;48.488;9.202;2023-03-13T04:48:23;96277.41;;;17.50;44.39
17209;BME280;8720;48.488;9.202;2023-03-13T04:51:02;96283.34;;;17.53;44.39
17209;BME280;8720;48.488;9.202;2023-03-13T04:53:43;96279.03;;;17.52;44.19
17209;BME280;8720;48.488;9.202;2023-03-13T04:56:30;96288.56;;;17.55;44.15
17209;BME280;8720;48.488;9.202;2023-03-13T04:59:17;96281.47;;;17.55;44.02
17209;BME280;8720;48.488;9.202;2023-03-13T05:01:58;96281.47;;;17.55;44.04
17209;BME280;8720;48.488;9.202;2023-03-13T05:04:38;96282.31;;;17.56;44.45
17209;BME280;8720;48.488;9.202;2023-03-13T05:07:24;96275.25;;;17.56;44.31
17209;BME280;8720;48.488;9.202;2023-03-13T05:09:51;96269.09;;;17.56;44.23
17209;BME280;8720;48.488;9.202;2023-03-13T05:12:37;96263.91;;;17.54;44.13
17209;BME280;8720;48.488;9.202;2023-03-13T05:15:11;96258.63;;;17.54;44.39
17209;BME280;8720;48.488;9.202;2023-03-13T05:18:05;96253.50;;;17.51;44.35
17209;BME280;8720;48.488;9.202;2023-03-13T05:20:40;96251.63;;;17.53;44.20
17209;BME280;8720;48.488;9.202;2023-03-13T05:23:19;96253.34;;;17.54;44.43
17209;BME280;8720;48.488;9.202;2023-03-13T05:26:16;96254.25;;;17.53;44.16
17209;BME280;8720;48.488;9.202;2023-03-13T05:29:02;96259.56;;;17.53;44.84
17209;BME280;8720;48.488;9.202;2023-03-13T05:31:55;96277.13;;;17.54;44.40
17209;BME280;8720;48.488;9.202;2023-03-13T05:34:49;96276.19;;;17.55;44.63
17209;BME280;8720;48.488;9.202;2023-03-13T05:37:34;96261.16;;;17.56;44.61
17209;BME280;8720;48.488;9.202;2023-03-13T05:40:14;96270.72;;;17.58;44.58
17209;BME280;8720;48.488;9.202;2023-03-13T05:43:08;96260.97;;;17.59;44.72
17209;BME280;8720;48.488;9.202;2023-03-13T05:46:07;96267.22;;;17.58;44.70
17209;BME280;8720;48.488;9.202;2023-03-13T05:48:44;96241.78;;;17.69;44.54
17209;BME280;8720;48.488;9.202;2023-03-13T05:51:30;96245.94;;;17.59;44.45
17209;BME280;8720;48.488;9.202;2023-03-13T05:54:18;96264.72;;;17.69;44.45
17209;BME280;8720;48.488;9.202;2023-03-13T05:57:13;96248.84;;;17.69;44.80
17209;BME280;8720;48.488;9.202;2023-03-13T05:59:49;96254.88;;;17.71;44.66
17209;BME280;8720;48.488;9.202;2023-03-13T06:02:45;96248.66;;;17.72;44.65
17209;BME280;8720;48.488;9.202;2023-03-13T06:05:18;96240.63;;;17.73;44.91
17209;BME280;8720;48.488;9.202;2023-03-13T06:07:48;96259.91;;;17.75;44.91
17209;BME280;8720;48.488;9.202;2023-03-13T06:10:16;96254.50;;;17.77;45.15
17209;BME280;8720;48.488;9.202;2023-03-13T06:12:51;96239.66;;;17.74;44.96
17209;BME280;8720;48.488;9.202;2023-03-13T06:15:20;96241.28;;;17.77;45.05
17209;BME280;8720;48.488;9.202;2023-03-13T06:17:55;96243.91;;;17.77;45.12
17209;BME280;8720;48.488;9.202;2023-03-13T06:20:22;96234.47;;;17.73;45.30
17209;BME280;8720;48.488;9.202;2023-03-13T06:22:49;96235.88;;;17.78;45.34
17209;BME280;8720;48.488;9.202;2023-03-13T06:25:17;96241.28;;;17.77;45.27
17209;BME280;8720;48.488;9.202;2023-03-13T06:27:46;96251.56;;;17.81;45.18
17209;BME280;8720;48.488;9.202;2023-03-13T06:30:13;96242.50;;;17.85;45.24
17209;BME280;8720;48.488;9.202;2023-03-13T06:32:41;96245.78;;;17.89;45.38
17209;BME280;8720;48.488;9.202;2023-03-13T06:35:09;96254.34;;;17.92;45.32
17209;BME280;8720;48.488;9.202;2023-03-13T06:37:36;96243.03;;;17.90;45.58
17209;BME280;8720;48.488;9.202;2023-03-13T06:40:05;96251.44;;;17.97;45.19
17209;BME280;8720;48.488;9.202;2023-03-13T06:42:33;96260.00;;;18.00;45.15
17209;BME280;8720;48.488;9.202;2023-03-13T06:45:02;96255.47;;;18.02;45.30
17209;BME280;8720;48.488;9.202;2023-03-13T06:47:30;96261.41;;;18.06;45.08
17209;BME280;8720;48.488;9.202;2023-03-13T06:49:58;96264.69;;;18.09;45.44
17209;BME280;8720;48.488;9.202;2023-03-13T06:52:26;96271.50;;;18.13;45.55
17209;BME280;8720;48.488;9.202;2023-03-13T06:54:53;96277.31;;;18.18;45.20
17209;BME280;8720;48.488;9.202;2023-03-13T06:57:21;96277.13;;;18.22;45.44
17209;BME280;8720;48.488;9.202;2023-03-13T06:59:48;96280.53;;;18.24;45.55
17209;BME280;8720;48.488;9.202;2023-03-13T07:02:17;96275.13;;;18.25;45.11
17209;BME280;8720;48.488;9.202;2023-03-13T07:04:44;96272.25;;;18.28;45.25
17209;BME280;8720;48.488;9.202;2023-03-13T07:07:12;96266.88;;;18.30;45.37
17209;BME280;8720;48.488;9.202;2023-03-13T07:09:39;96262.34;;;18.32;45.43
17209;BME280;8720;48.488;9.202;2023-03-13T07:12:08;96263.16;;;18.32;45.52
17209;BME280;8720;48.488;9.202;2023-03-13T07:14:36;96269.31;;;18.33;45.08
17209;BME280;8720;48.488;9.202;2023-03-13T07:17:03;96264.88;;;18.33;45.54
17209;BME280;8720;48.488;9.202;2023-03-13T07:19:32;96259.59;;;18.33;45.11
17209;BME280;8720;48.488;9.202;2023-03-13T07:21:59;96261.25;;;18.34;45.50
17209;BME280;8720;48.488;9.202;2023-03-13T07:24:27;96262.75;;;18.26;45.43
17209;BME280;8720;48.488;9.202;2023-03-13T07:26:54;96265.63;;;18.35;45.23
17209;BME280;8720;48.488;9.202;2023-03-13T07:29:21;96267.41;;;18.35;45.43
17209;BME280;8720;48.488;9.202;2023-03-13T07:31:49;96269.13;;;18.36;45.31
17209;BME280;8720;48.488;9.202;2023-03-13T07:34:16;96256.72;;;18.36;45.52
17209;BME280;8720;48.488;9.202;2023-03-13T07:36:45;96263.63;;;18.39;45.86
17209;BME280;8720;48.488;9.202;2023-03-13T07:39:12;96261.63;;;18.42;45.57
17209;BME280;8720;48.488;9.202;2023-03-13T07:41:40;96257.84;;;18.46;45.64
17209;BME280;8720;48.488;9.202;2023-03-13T07:44:07;96266.22;;;18.53;45.79
17209;BME280;8720;48.488;9.202;2023-03-13T07:46:35;96264.84;;;18.60;45.51
17209;BME280;8720;48.488;9.202;2023-03-13T07:49:02;96271.44;;;18.67;45.44
17209;BME280;8720;48.488;9.202;2023-03-13T07:51:29;96254.25;;;18.72;45.60
17209;BME280;8720;48.488;9.202;2023-03-13T07:53:58;96256.31;;;18.81;45.54
17209;BME280;8720;48.488;9.202;2023-03-13T07:56:25;96257.56;;;18.88;45.46
17209;BME280;8720;48.488;9.202;2023-03-13T07:58:53;96248.97;;;18.97;45.69
17209;BME280;8720;48.488;9.202;2023-03-13T08:01:22;96246.44;;;19.09;45.38
17209;BME280;8720;48.488;9.202;2023-03-13T08:03:52;96244.00;;;19.18;45.38
17209;BME280;8720;48.488;9.202;2023-03-13T08:06:23;96237.19;;;19.27;45.19
17209;BME280;8720;48.488;9.202;2023-03-13T08:08:52;96230.44;;;19.35;45.20
17209;BME280;8720;48.488;9.202;2023-03-13T08:11:22;96236.78;;;19.45;45.29
17209;BME280;8720;48.488;9.202;2023-03-13T08:13:51;96245.03;;;19.53;44.96
17209;BME280;8720;48.488;9.202;2023-03-13T08:16:21;96246.41;;;19.59;44.80
17209;BME280;8720;48.488;9.202;2023-03-13T08:18:51;96247.97;;;19.61;45.10
17209;BME280;8720;48.488;9.202;2023-03-13T08:21:23;96257.53;;;19.64;44.80
17209;BME280;8720;48.488;9.202;2023-03-13T08:23:53;96247.16;;;19.61;44.65
17209;BME280;8720;48.488;9.202;2023-03-13T08:26:26;96249.69;;;19.62;45.12
17209;BME280;8720;48.488;9.202;2023-03-13T08:28:56;96236.41;;;19.62;44.84
17209;BME280;8720;48.488;9.202;2023-03-13T08:31:27;96228.44;;;19.62;45.13
17209;BME280;8720;48.488;9.202;2023-03-13T08:33:55;96205.31;;;19.64;44.80
17209;BME280;8720;48.488;9.202;2023-03-13T08:36:25;96206.34;;;19.74;44.56
17209;BME280;8720;48.488;9.202;2023-03-13T08:38:56;96185.31;;;19.71;45.04
17209;BME280;8720;48.488;9.202;2023-03-13T08:41:28;96196.63;;;19.86;44.87
17209;BME280;8720;48.488;9.202;2023-03-13T08:43:56;96189.16;;;19.91;44.84
17209;BME280;8720;48.488;9.202;2023-03-13T08:46:26;96191.13;;;20.00;44.84
17209;BME280;8720;48.488;9.202;2023-03-13T08:48:55;96193.13;;;20.09;44.73
17209;BME280;8720;48.488;9.202;2023-03-13T08:51:24;96169.53;;;20.05;44.51
17209;BME280;8720;48.488;9.202;2023-03-13T08:53:52;96184.56;;;20.17;44.83
17209;BME280;8720;48.488;9.202;2023-03-13T08:56:23;96170.31;;;20.18;44.59
17209;BME280;8720;48.488;9.202;2023-03-13T08:58:54;96170.94;;;20.21;44.72
17209;BME280;8720;48.488;9.202;2023-03-13T09:01:25;96164.69;;;20.22;44.63
17209;BME280;8720;48.488;9.202;2023-03-13T09:03:54;96160.66;;;20.17;44.70
17209;BME280;8720;48.488;9.202;2023-03-13T09:06:22;96184.63;;;20.28;44.55
17209;BME280;8720;48.488;9.202;2023-03-13T09:08:49;96186.22;;;20.30;44.64
17209;BME280;8720;48.488;9.202;2023-03-13T09:11:19;96185.97;;;20.33;44.28
17209;BME280;8720;48.488;9.202;2023-03-13T09:13:49;96180.41;;;20.36;44.25
17209;BME280;8720;48.488;9.202;2023-03-13T09:16:20;96186.25;;;20.41;44.44
17209;BME280;8720;48.488;9.202;2023-03-13T09:18:49;96198.47;;;20.44;44.60
17209;BME280;8720;48.488;9.202;2023-03-13T09:21:19;96185.78;;;20.47;44.41
17209;BME280;8720;48.488;9.202;2023-03-13T09:23:47;96195.22;;;20.51;44.14
17209;BME280;8720;48.488;9.202;2023-03-13T09:26:15;96181.34;;;20.59;44.45
17209;BME280;8720;48.488;9.202;2023-03-13T09:28:43;96190.31;;;20.69;44.50
17209;BME280;8720;48.488;9.202;2023-03-13T09:31:13;96186.81;;;20.79;44.20
17209;BME280;8720;48.488;9.202;2023-03-13T09:33:44;96194.44;;;20.95;44.28
17209;BME280;8720;48.488;9.202;2023-03-13T09:36:15;96180.81;;;21.11;44.01
17209;BME280;8720;48.488;9.202;2023-03-13T09:38:43;96182.50;;;21.23;43.87
17209;BME280;8720;48.488;9.202;2023-03-13T09:41:25;96182.59;;;21.43;43.73
17209;BME280;8720;48.488;9.202;2023-03-13T09:44:02;96185.59;;;21.61;43.68
17209;BME280;8720;48.488;9.202;2023-03-13T09:46:38;96175.06;;;21.82;43.33
17209;BME280;8720;48.488;9.202;2023-03-13T09:49:20;96181.28;;;22.03;42.94
17209;BME280;8720;48.488;9.202;2023-03-13T09:52:00;96177.34;;;22.18;43.01
17209;BME280;8720;48.488;9.202;2023-03-13T09:54:36;96186.19;;;22.39;42.38
17209;BME280;8720;48.488;9.202;2023-03-13T09:57:14;96181.28;;;22.55;42.09
17209;BME280;8720;48.488;9.202;2023-03-13T09:59:50;96181.00;;;22.69;41.54
17209;BME280;8720;48.488;9.202;2023-03-13T10:02:29;96172.47;;;22.75;41.15
17209;BME280;8720;48.488;9.202;2023-03-13T10:05:09;96150.88;;;22.78;41.18
17209;BME280;8720;48.488;9.202;2023-03-13T10:07:38;96157.44;;;22.74;40.34
17209;BME280;8720;48.488;9.202;2023-03-13T10:10:13;96163.63;;;22.75;40.60
17209;BME280;8720;48.488;9.202;2023-03-13T10:12:45;96164.72;;;22.72;40.68
17209;BME280;8720;48.488;9.202;2023-03-13T10:15:29;96169.34;;;22.70;40.20
17209;BME280;8720;48.488;9.202;2023-03-13T10:18:09;96169.03;;;22.64;40.21
17209;BME280;8720;48.488;9.202;2023-03-13T10:20:42;96179.28;;;22.68;40.47
17209;BME280;8720;48.488;9.202;2023-03-13T10:23:15;96180.16;;;22.69;40.01
17209;BME280;8720;48.488;9.202;2023-03-13T10:25:45;96154.19;;;22.71;40.26
17209;BME280;8720;48.488;9.202;2023-03-13T10:28:14;96150.16;;;22.76;39.72
17209;BME280;8720;48.488;9.202;2023-03-13T10:30:47;96149.75;;;22.81;40.01
17209;BME280;8720;48.488;9.202;2023-03-13T10:33:25;96145.97;;;22.83;39.79
17209;BME280;8720;48.488;9.202;2023-03-13T10:36:07;96141.81;;;22.90;39.62
17209;BME280;8720;48.488;9.202;2023-03-13T10:38:48;96119.94;;;22.96;39.58
17209;BME280;8720;48.488;9.202;2023-03-13T10:41:26;96124.31;;;23.07;39.40
17209;BME280;8720;48.488;9.202;2023-03-13T10:44:00;96126.44;;;23.13;39.51
17209;BME280;8720;48.488;9.202;2023-03-13T10:46:33;96122.16;;;23.21;39.35
17209;BME280;8720;48.488;9.202;2023-03-13T10:49:13;96107.25;;;23.28;39.24
17209;BME280;8720;48.488;9.202;2023-03-13T10:51:51;96113.38;;;23.40;39.38
17209;BME280;8720;48.488;9.202;2023-03-13T10:54:23;96096.13;;;23.54;38.75
17209;BME280;8720;48.488;9.202;2023-03-13T10:57:29;96079.25;;;23.63;38.89
17209;BME280;8720;48.488;9.202;2023-03-13T10:59:59;96090.25;;;23.79;38.31
17209;BME280;8720;48.488;9.202;2023-03-13T11:02:41;96057.63;;;23.75;38.47
17209;BME280;8720;48.488;9.202;2023-03-13T11:05:40;96072.09;;;24.01;38.70
17209;BME280;8720;48.488;9.202;2023-03-13T11:08:32;96066.22;;;24.17;38.25
17209;BME280;8720;48.488;9.202;2023-03-13T11:11:22;96069.56;;;24.28;37.87
17209;BME280;8720;48.488;9.202;2023-03-13T11:14:21;96060.81;;;24.46;38.06
17209;BME280;8720;48.488;9.202;2023-03-13T11:17:35;96047.13;;;24.58;37.82
17209;BME280;8720;48.488;9.202;2023-03-13T11:20:24;96036.56;;;24.66;37.34
17209;BME280;8720;48.488;9.202;2023-03-13T11:23:27;96023.16;;;24.66;37.73
17209;BME280;8720;48.488;9.202;2023-03-13T11:26:09;96020.19;;;24.69;37.38
17209;BME280;8720;48.488;9.202;2023-03-13T11:28:57;96022.16;;;24.77;37.37
17209;BME280;8720;48.488;9.202;2023-03-13T11:31:41;96021.97;;;24.88;36.70
17209;BME280;8720;48.488;9.202;2023-03-13T11:34:21;96015.75;;;24.97;36.47
17209;BME280;8720;48.488;9.202;2023-03-13T11:37:02;96004.28;;;25.04;36.74
17209;BME280;8720;48.488;9.202;2023-03-13T11:39:58;95993.09;;;25.09;36.76
17209;BME280;8720;48.488;9.202;2023-03-13T11:42:47;95992.81;;;25.12;36.83
17209;BME280;8720;48.488;9.202;2023-03-13T11:45:49;95988.00;;;25.15;36.85
17209;BME280;8720;48.488;9.202;2023-03-13T11:48:53;95978.69;;;25.19;36.37
17209;BME280;8720;48.488;9.202;2023-03-13T11:51:37;95967.53;;;25.24;36.14
17209;BME280;8720;48.488;9.202;2023-03-13T11:54:36;95958.81;;;25.22;36.21
17209;BME280;8720;48.488;9.202;2023-03-13T11:57:15;95953.72;;;25.19;35.95
17209;BME280;8720;48.488;9.202;2023-03-13T12:00:02;95944.16;;;25.16;36.01
17209;BME280;8720;48.488;9.202;2023-03-13T12:02:42;95938.97;;;25.15;36.16
17209;BME280;8720;48.488;9.202;2023-03-13T12:05:17;95926.59;;;25.14;36.11
17209;BME280;8720;48.488;9.202;2023-03-13T12:07:52;95925.59;;;25.15;35.75
17209;BME280;8720;48.488;9.202;2023-03-13T12:10:27;95899.28;;;25.10;35.63
17209;BME280;8720;48.488;9.202;2023-03-13T12:13:04;95898.97;;;25.13;35.89
17209;BME280;8720;48.488;9.202;2023-03-13T12:15:37;95885.25;;;25.16;35.36
17209;BME280;8720;48.488;9.202;2023-03-13T12:18:17;95878.94;;;25.17;35.54
17209;BME280;8720;48.488;9.202;2023-03-13T12:20:53;95876.25;;;25.17;35.43
17209;BME280;8720;48.488;9.202;2023-03-13T12:23:35;95862.53;;;25.20;35.59
17209;BME280;8720;48.488;9.202;2023-03-13T12:26:12;95860.88;;;25.19;35.21
17209;BME280;8720;48.488;9.202;2023-03-13T12:28:49;95852.69;;;25.21;34.69
17209;BME280;8720;48.488;9.202;2023-03-13T12:31:25;95847.16;;;25.22;34.84
17209;BME280;8720;48.488;9.202;2023-03-13T12:34:05;95844.19;;;25.26;34.68
17209;BME280;8720;48.488;9.202;2023-03-13T12:36:43;95834.88;;;25.30;34.17
17209;BME280;8720;48.488;9.202;2023-03-13T12:39:24;95834.38;;;25.34;34.55
17209;BME280;8720;48.488;9.202;2023-03-13T12:42:09;95816.88;;;25.40;34.47
17209;BME280;8720;48.488;9.202;2023-03-13T12:44:41;95802.03;;;25.45;34.21
17209;BME280;8720;48.488;9.202;2023-03-13T12:47:15;95793.84;;;25.47;33.88
17209;BME280;8720;48.488;9.202;2023-03-13T12:50:13;95793.91;;;25.55;34.00
17209;BME280;8720;48.488;9.202;2023-03-13T12:56:14;95772.50;;;25.63;33.59
17209;BME280;8720;48.488;9.202;2023-03-13T12:58:47;95763.16;;;25.67;32.78
17209;BME280;8720;48.488;9.202;2023-03-13T13:01:29;95744.09;;;25.70;32.94
17209;BME280;8720;48.488;9.202;2023-03-13T13:04:00;95736.91;;;25.78;32.84
17209;BME280;8720;48.488;9.202;2023-03-13T13:06:51;95732.44;;;25.87;33.29
17209;BME280;8720;48.488;9.202;2023-03-13T13:09:23;95722.75;;;25.94;32.48
17209;BME280;8720;48.488;9.202;2023-03-13T13:11:53;95721.41;;;25.98;32.18
17209;BME280;8720;48.488;9.202;2023-03-13T13:15:01;95720.50;;;26.07;32.22
17209;BME280;8720;48.488;9.202;2023-03-13T13:17:57;95707.25;;;26.14;32.15
17209;BME280;8720;48.488;9.202;2023-03-13T13:20:47;95698.41;;;26.21;31.72
17209;BME280;8720;48.488;9.202;2023-03-13T13:23:31;95700.25;;;26.29;31.96
17209;BME280;8720;48.488;9.202;2023-03-13T13:26:48;95680.31;;;26.31;32.07
17209;BME280;8720;48.488;9.202;2023-03-13T13:29:55;95675.97;;;26.38;32.21
17209;BME280;8720;48.488;9.202;2023-03-13T13:32:40;95676.16;;;26.45;31.55
17209;BME280;8720;48.488;9.202;2023-03-13T13:35:30;95666.59;;;26.50;31.79
17209;BME280;8720;48.488;9.202;2023-03-13T13:38:30;95666.28;;;26.53;31.33
17209;BME280;8720;48.488;9.202;2023-03-13T13:41:22;95669.63;;;26.55;31.62
17209;BME280;8720;48.488;9.202;2023-03-13T13:44:22;95656.72;;;26.59;31.45
17209;BME280;8720;48.488;9.202;2023-03-13T13:46:50;95649.16;;;26.62;30.78
17209;BME280;8720;48.488;9.202;2023-03-13T13:49:21;95645.66;;;26.70;30.46
17209;BME280;8720;48.488;9.202;2023-03-13T13:55:01;95633.59;;;26.74;30.50
17209;BME280;8720;48.488;9.202;2023-03-13T13:57:31;95629.38;;;26.79;30.87
17209;BME280;8720;48.488;9.202;2023-03-13T14:00:16;95615.97;;;26.87;30.59